Dyess Air Force Base
KDYS : now visible

Airfield :











YOU CAN JOIN US ON...

 
LOGIN :

Register | Disclaimer

   EN    FR    IT 

 









Legend :    VFR   Marginal VFR   IFR   Intensive IFR   Very Intensive IFR
Visi :
Ceiling :
>= 8 km
>= 3000ft
5 to 8 km
1000 to 3000 ft
1500m to 5 km
500 to 1000 ft
800 to 1500m
200 to 500 ft
< 800m
< 200 ft
Symbols :   Thunderstorms  Fog  Heavy snow  Heavy precipitations  Wind > 20 kt







- Airport Elevation : 1789 ft


KDYS - Dyess Air Force Base

CURRENT METAR :
  • 261011Z 15011KT 10SM FEW018 21/17 A2996 RMK AO2A SLP103 $

EXPIRED METARs :
  • 260956Z 15016KT 10SM BKN017 22/17 A2995 RMK AO2A SLP098 T02150171 $
  • 260926Z 13012KT 10SM BKN018 BKN023 22/17 A2996 RMK AO2A CIG 017 RWY34 SLP101 $
  • 260856Z 13013G18KT 10SM FEW022 22/17 A2995 RMK AO2A SLP098 T02210172 52011 $
  • 260756Z 14010G24KT 10SM CLR 23/17 A2994 RMK AO2A PK WND 15028/27 SLP095 T02290173 $

TAF AMD TAF KDYS
Valid from the 26 at 03:00 until the 27 at 04:00 UTC


260322Z 2603/2704 16012G18KT 9999 SCT150 QNH2986INS
BECMG 2605/2606 16015G25KT 9999 BKN020 QNH2992INS
BECMG 2611/2612 17012G18KT 9999 BKN010 QNH2996INS
BECMG 2614/2615 17015G25KT 9999 BKN015 QNH2999INS
BECMG 2617/2618 17015G25KT 9999 BKN030 QNH2988INS
BECMG 2700/2701 15012KT 9999 SCT050 QNH2990INS TX31/2621Z TN21/2611Z LAST NO AMDS AFT 2603 NEXT 2706
KZFW FIR / North America



MET'MAP, your aeronautical weather chart ! - Copyright ORBIFLY December 2007 - Disclaimer

ORBIFLY MET'MAP TEAM :

Programming & Development : Alexandra Zaïnal
Concept & Development : Baudouin d'Aumeries
Co-Development & Prog : Marc-Olivier Méhu
Technical & hardware support : Manuel Goepfert

Contact : metmap@orbifly.com




SOURCES & CREDITS :

   NOAA       Earth
Advisory